Time;durP1;ratioP1;P1;durP2;ratioP2;P2;SDS_P1;SDS_P2;PMS_P1;PMS_P2;Temp;Humidity;BMP_temperature;BMP_pressure;BME280_temperature;BME280_humidity;BME280_pressure;Samples;Min_cycle;Max_cycle;Signal;HPM_P1;HPM_P2
2023/07/01 00:01:55;;;;;;;7.50;2.00;;;;;;;-146.26;100.00;65085.03;5224364;28;20029;-70
2023/07/01 00:04:25;;;;;;;7.93;2.08;;;;;;;-146.26;100.00;65085.03;5223789;28;20017;-71
2023/07/01 00:06:56;;;;;;;7.28;2.38;;;;;;;-146.26;100.00;65085.03;5222926;28;20029;-71
2023/07/01 00:09:26;;;;;;;9.02;2.28;;;;;;;-146.26;100.00;65085.03;5223447;28;20025;-70
2023/07/01 00:11:57;;;;;;;5.78;1.88;;;;;;;-146.26;100.00;65085.03;5223948;28;20597;-71
2023/07/01 00:14:27;;;;;;;9.30;1.95;;;;;;;-146.26;100.00;65085.03;5223637;28;20068;-71
2023/07/01 00:16:58;;;;;;;10.85;2.35;;;;;;;-146.26;100.00;65085.03;5222976;28;20021;-71
2023/07/01 00:19:28;;;;;;;8.00;2.75;;;;;;;-146.26;100.00;65085.03;5223887;28;20021;-71
2023/07/01 00:21:59;;;;;;;5.82;2.13;;;;;;;-146.26;100.00;65085.03;5223296;28;20036;-71
2023/07/01 00:24:29;;;;;;;8.10;2.13;;;;;;;-146.26;100.00;65085.03;5223776;28;20205;-71
2023/07/01 00:26:59;;;;;;;8.50;2.25;;;;;;;-146.26;100.00;65085.03;5223119;28;20028;-71
2023/07/01 00:29:30;;;;;;;9.35;2.25;;;;;;;-146.26;100.00;65085.03;5223661;28;20017;-70
2023/07/01 00:32:00;;;;;;;9.77;2.40;;;;;;;-146.26;100.00;65085.03;5223704;28;20521;-71
2023/07/01 00:34:31;;;;;;;8.60;2.65;;;;;;;-146.26;100.00;65085.03;5223343;28;20024;-71
2023/07/01 00:37:02;;;;;;;8.00;2.17;;;;;;;-146.26;100.00;65085.03;5223058;28;20025;-70
2023/07/01 00:39:33;;;;;;;6.88;2.45;;;;;;;-146.26;100.00;65085.03;5223677;28;20108;-71
2023/07/01 00:42:04;;;;;;;7.80;2.17;;;;;;;-146.26;100.00;65085.03;5223490;28;20024;-71
2023/07/01 00:44:35;;;;;;;5.90;2.30;;;;;;;-146.26;100.00;65085.03;5223388;28;20381;-71
2023/07/01 00:47:05;;;;;;;10.55;2.85;;;;;;;-146.26;100.00;65085.03;5222552;28;20040;-71
2023/07/01 00:49:37;;;;;;;7.65;2.63;;;;;;;-146.26;100.00;65085.03;5223086;28;20040;-70
2023/07/01 00:52:08;;;;;;;6.45;2.25;;;;;;;-146.26;100.00;65085.03;5223546;28;20021;-70
2023/07/01 00:54:40;;;;;;;8.23;2.38;;;;;;;-146.26;100.00;65085.03;5223173;28;20028;-69
2023/07/01 00:57:10;;;;;;;8.05;2.17;;;;;;;-146.26;100.00;65085.03;5222594;28;20666;-69
2023/07/01 00:59:41;;;;;;;6.72;2.50;;;;;;;-146.26;100.00;65085.03;5223016;28;20021;-70
2023/07/01 01:02:19;;;;;;;7.25;2.92;;;;;;;-146.26;100.00;65085.03;5223829;28;20210;-71
2023/07/01 01:05:02;;;;;;;5.45;2.60;;;;;;;-146.26;100.00;65085.03;5223291;28;20017;-70
2023/07/01 01:07:53;;;;;;;11.52;3.00;;;;;;;-146.26;100.00;65085.03;5222727;28;20032;-69
2023/07/01 01:10:25;;;;;;;7.75;2.55;;;;;;;-146.26;100.00;65085.03;5223426;28;20057;-70
2023/07/01 01:12:57;;;;;;;12.73;4.00;;;;;;;-146.26;100.00;65085.03;5223285;28;20029;-70
2023/07/01 01:15:28;;;;;;;6.30;2.88;;;;;;;-146.26;100.00;65085.03;5222853;28;20103;-70
2023/07/01 01:18:04;;;;;;;5.85;3.22;;;;;;;-146.26;100.00;65085.03;5225174;28;20104;-71
2023/07/01 01:20:38;;;;;;;7.13;3.17;;;;;;;-146.26;100.00;65085.03;5227305;28;20363;-71
2023/07/01 01:23:14;;;;;;;8.88;3.03;;;;;;;-146.26;100.00;65085.03;5227098;28;20055;-70
2023/07/01 01:26:05;;;;;;;7.10;3.00;;;;;;;-146.26;100.00;65085.03;5226707;28;20025;-70
2023/07/01 01:28:36;;;;;;;8.23;2.70;;;;;;;-146.26;100.00;65085.03;5226830;28;20025;-71
2023/07/01 01:31:07;;;;;;;8.60;2.95;;;;;;;-146.26;100.00;65085.03;5227357;28;20013;-71
2023/07/01 01:33:38;;;;;;;7.28;3.15;;;;;;;-146.26;100.00;65085.03;5227081;28;20025;-72
2023/07/01 01:36:16;;;;;;;6.18;2.90;;;;;;;-146.26;100.00;65085.03;5226595;28;20078;-72
2023/07/01 01:38:47;;;;;;;4.80;2.95;;;;;;;-146.26;100.00;65085.03;5226976;28;20024;-71
2023/07/01 01:41:25;;;;;;;13.30;3.55;;;;;;;-146.26;100.00;65085.03;5226599;28;20040;-71
2023/07/01 01:44:01;;;;;;;7.97;3.05;;;;;;;-146.26;100.00;65085.03;5227167;28;20021;-72
2023/07/01 01:46:34;;;;;;;16.42;3.88;;;;;;;-146.26;100.00;65085.03;5226166;28;20025;-72
2023/07/01 01:49:06;;;;;;;11.05;3.70;;;;;;;-146.26;100.00;65085.03;5226627;28;20040;-72
2023/07/01 01:51:40;;;;;;;6.00;3.72;;;;;;;-146.26;100.00;65085.03;5226613;28;20029;-72
2023/07/01 01:54:12;;;;;;;10.30;3.47;;;;;;;-146.26;100.00;65085.03;5226703;28;20029;-71
2023/07/01 01:56:43;;;;;;;7.03;3.53;;;;;;;-146.26;100.00;65085.03;5226197;28;20032;-71
2023/07/01 01:59:14;;;;;;;4.13;2.88;;;;;;;-146.26;100.00;65085.03;5226556;28;20078;-72
2023/07/01 02:01:45;;;;;;;10.98;3.75;;;;;;;-146.26;100.00;65085.03;5226800;28;20037;-72
2023/07/01 02:04:15;;;;;;;7.65;3.13;;;;;;;-146.26;100.00;65085.03;5226293;28;20021;-72
2023/07/01 02:06:46;;;;;;;11.90;3.33;;;;;;;-146.26;100.00;65085.03;5226184;28;20074;-72
2023/07/01 02:09:16;;;;;;;5.35;3.28;;;;;;;-146.26;100.00;65085.03;5226619;28;20106;-72
2023/07/01 02:11:47;;;;;;;7.22;3.15;;;;;;;-146.26;100.00;65085.03;5226480;28;20036;-72
2023/07/01 02:14:17;;;;;;;7.75;3.80;;;;;;;-146.26;100.00;65085.03;5226219;28;20112;-72
2023/07/01 02:16:49;;;;;;;5.38;3.30;;;;;;;-146.26;100.00;65085.03;5225231;28;20606;-71
2023/07/01 02:19:20;;;;;;;6.20;3.03;;;;;;;-146.26;100.00;65085.03;5238893;28;20029;-72
2023/07/01 02:21:50;;;;;;;7.35;2.85;;;;;;;-146.26;100.00;65085.03;5226007;28;20041;-71
2023/07/01 02:24:21;;;;;;;7.88;3.35;;;;;;;-146.26;100.00;65085.03;5226233;28;20048;-72
2023/07/01 02:26:51;;;;;;;5.75;3.22;;;;;;;-146.26;100.00;65085.03;5225314;28;20028;-71
2023/07/01 02:29:22;;;;;;;5.65;3.08;;;;;;;-146.26;100.00;65085.03;5225423;28;20064;-71
2023/07/01 02:31:52;;;;;;;6.93;3.40;;;;;;;-146.26;100.00;65085.03;5226068;28;20029;-71
2023/07/01 02:34:26;;;;;;;7.15;3.58;;;;;;;-146.26;100.00;65085.03;5225930;28;20032;-71
2023/07/01 02:36:56;;;;;;;13.25;3.88;;;;;;;-146.26;100.00;65085.03;5225317;28;20397;-71
2023/07/01 02:39:27;;;;;;;4.35;3.25;;;;;;;-146.26;100.00;65085.03;5225711;28;20025;-71
2023/07/01 02:41:57;;;;;;;7.43;3.75;;;;;;;-146.26;100.00;65085.03;5226035;28;20417;-71
2023/07/01 02:44:28;;;;;;;9.07;3.70;;;;;;;-146.26;100.00;65085.03;5225839;28;20104;-71
2023/07/01 02:46:59;;;;;;;13.82;3.72;;;;;;;-146.26;100.00;65085.03;5225073;28;20072;-71
2023/07/01 02:49:29;;;;;;;5.25;3.85;;;;;;;-146.26;100.00;65085.03;5225497;28;20029;-71
2023/07/01 02:52:00;;;;;;;12.15;4.07;;;;;;;-146.26;100.00;65085.03;5225556;28;20029;-72
2023/07/01 02:54:30;;;;;;;10.02;4.38;;;;;;;-146.26;100.00;65085.03;5225683;28;20028;-71
2023/07/01 02:57:01;;;;;;;7.80;4.68;;;;;;;-146.26;100.00;65085.03;5225179;28;20470;-71
2023/07/01 02:59:31;;;;;;;8.55;4.70;;;;;;;-146.26;100.00;65085.03;5225276;28;20429;-73
2023/07/01 03:02:04;;;;;;;11.63;4.80;;;;;;;-146.26;100.00;65085.03;5225517;28;20252;-72
2023/07/01 03:04:35;;;;;;;10.00;4.93;;;;;;;-146.26;100.00;65085.03;5225058;28;20024;-72
2023/07/01 03:07:05;;;;;;;13.20;6.00;;;;;;;-146.26;100.00;65085.03;5225160;28;20025;-71
2023/07/01 03:09:36;;;;;;;8.95;4.95;;;;;;;-146.26;100.00;65085.03;5225622;28;20086;-70
2023/07/01 03:12:06;;;;;;;9.18;4.78;;;;;;;-146.26;100.00;65085.03;5225237;28;20370;-70
2023/07/01 03:14:37;;;;;;;9.68;4.55;;;;;;;-146.26;100.00;65085.03;5225313;28;20033;-71
2023/07/01 03:17:07;;;;;;;8.45;5.28;;;;;;;-146.26;100.00;65085.03;5224165;28;20021;-71
2023/07/01 03:19:40;;;;;;;9.50;5.30;;;;;;;-146.26;100.00;65085.03;5225494;28;20025;-72
2023/07/01 03:22:11;;;;;;;9.27;5.18;;;;;;;-146.26;100.00;65085.03;5225089;28;20021;-71
2023/07/01 03:24:41;;;;;;;7.95;4.82;;;;;;;-146.26;100.00;65085.03;5225266;28;20071;-70
2023/07/01 03:27:12;;;;;;;9.93;5.25;;;;;;;-146.26;100.00;65085.03;5224527;28;20029;-72
2023/07/01 03:29:42;;;;;;;11.80;4.68;;;;;;;-146.26;100.00;65085.03;5225180;28;20037;-72
2023/07/01 03:32:12;;;;;;;9.88;4.40;;;;;;;-146.26;100.00;65085.03;5225184;28;20031;-71
2023/07/01 03:34:43;;;;;;;10.02;4.80;;;;;;;-146.26;100.00;65085.03;5225042;28;20033;-71
2023/07/01 03:37:13;;;;;;;6.03;4.72;;;;;;;-146.26;100.00;65085.03;5224779;28;20024;-71
2023/07/01 03:39:44;;;;;;;7.20;4.22;;;;;;;-146.26;100.00;65085.03;5224557;28;20027;-71
2023/07/01 03:42:14;;;;;;;8.27;4.00;;;;;;;-146.26;100.00;65085.03;5224339;28;20059;-70
2023/07/01 03:44:45;;;;;;;7.15;3.83;;;;;;;-146.26;100.00;65085.03;5225240;28;20048;-70
2023/07/01 03:47:15;;;;;;;6.97;3.75;;;;;;;-146.26;100.00;65085.03;5224509;28;20020;-70
2023/07/01 03:49:46;;;;;;;5.55;3.58;;;;;;;-146.26;100.00;65085.03;5224432;28;20025;-72
2023/07/01 03:52:16;;;;;;;8.15;3.70;;;;;;;-146.26;100.00;65085.03;5224351;28;20028;-71
2023/07/01 03:54:46;;;;;;;4.22;3.08;;;;;;;-146.26;100.00;65085.03;5224571;28;20024;-71
2023/07/01 03:57:17;;;;;;;6.03;3.47;;;;;;;-146.26;100.00;65085.03;5224218;28;20100;-70
2023/07/01 03:59:47;;;;;;;10.88;3.50;;;;;;;-146.26;100.00;65085.03;5224449;28;20060;-70
2023/07/01 04:02:18;;;;;;;5.50;3.05;;;;;;;-146.26;100.00;65085.03;5224627;28;20402;-72
2023/07/01 04:04:48;;;;;;;5.57;3.22;;;;;;;-146.26;100.00;65085.03;5224443;28;20021;-71
2023/07/01 04:07:21;;;;;;;10.32;3.60;;;;;;;-146.26;100.00;65085.03;5224353;28;20036;-72
2023/07/01 04:09:52;;;;;;;6.70;3.47;;;;;;;-146.26;100.00;65085.03;5224410;28;20438;-71
2023/07/01 04:12:22;;;;;;;5.38;3.25;;;;;;;-146.26;100.00;65085.03;5224069;28;20112;-70
2023/07/01 04:14:52;;;;;;;8.15;3.80;;;;;;;-146.26;100.00;65085.03;5224392;28;20763;-72
2023/07/01 04:17:23;;;;;;;6.35;3.03;;;;;;;-146.26;100.00;65085.03;5223760;28;20494;-71
2023/07/01 04:19:53;;;;;;;7.47;3.65;;;;;;;-146.26;100.00;65085.03;5224167;28;20020;-70
2023/07/01 04:22:24;;;;;;;5.20;3.25;;;;;;;-146.26;100.00;65085.03;5223885;28;20036;-70
2023/07/01 04:24:54;;;;;;;8.95;3.05;;;;;;;-146.26;100.00;65085.03;5224126;28;20382;-72
2023/07/01 04:27:25;;;;;;;6.00;3.38;;;;;;;-146.26;100.00;65085.03;5223568;28;20020;-70
2023/07/01 04:29:55;;;;;;;8.30;4.10;;;;;;;-146.26;100.00;65085.03;5223791;28;20025;-71
2023/07/01 04:32:26;;;;;;;6.03;3.20;;;;;;;-146.26;100.00;65085.03;5224115;28;20036;-72
2023/07/01 04:34:56;;;;;;;6.03;3.35;;;;;;;-146.26;100.00;65085.03;5223658;28;20035;-71
2023/07/01 04:37:27;;;;;;;7.32;3.67;;;;;;;-146.26;100.00;65085.03;5224069;28;20051;-70
2023/07/01 04:39:57;;;;;;;10.02;3.60;;;;;;;-146.26;100.00;65085.03;5223957;28;20039;-71
2023/07/01 04:42:27;;;;;;;5.60;3.47;;;;;;;-146.26;100.00;65085.03;5223758;28;20029;-72
2023/07/01 04:44:58;;;;;;;7.50;3.33;;;;;;;-146.26;100.00;65085.03;5224183;28;20371;-72
2023/07/01 04:47:29;;;;;;;5.30;3.47;;;;;;;-146.26;100.00;65085.03;5225328;28;20068;-71
2023/07/01 04:50:00;;;;;;;5.70;3.80;;;;;;;-146.26;100.00;65085.03;5226063;28;20040;-70
2023/07/01 04:52:30;;;;;;;7.00;3.47;;;;;;;-146.26;100.00;65085.03;5223526;28;20029;-70
2023/07/01 04:55:00;;;;;;;4.22;3.10;;;;;;;-146.26;100.00;65085.03;5223421;28;20031;-70
2023/07/01 04:57:31;;;;;;;9.20;3.25;;;;;;;-146.26;100.00;65085.03;5223324;28;20135;-71
2023/07/01 05:00:05;;;;;;;6.38;3.72;;;;;;;-146.26;100.00;65085.03;5223544;28;20028;-71
2023/07/01 05:02:35;;;;;;;4.10;3.13;;;;;;;-146.26;100.00;65085.03;5223410;28;20028;-71
2023/07/01 05:05:06;;;;;;;7.18;3.30;;;;;;;-146.26;100.00;65085.03;5223305;28;20029;-71
2023/07/01 05:07:37;;;;;;;7.13;3.13;;;;;;;-146.26;100.00;65085.03;5222778;28;20035;-71
2023/07/01 05:10:08;;;;;;;5.95;3.10;;;;;;;-146.26;100.00;65085.03;5222863;28;20032;-71
2023/07/01 05:12:45;;;;;;;6.25;3.33;;;;;;;-146.26;100.00;65085.03;5199086;28;20037;-72
2023/07/01 05:15:39;;;;;;;6.60;3.15;;;;;;;;;;5367173;27;20418;-70
2023/07/01 05:18:10;;;;;;;4.38;3.13;;;;;;;;;;5316464;27;20062;-70
2023/07/01 05:20:40;;;;;;;4.07;2.83;;;;;;;;;;5338630;27;20046;-71
2023/07/01 05:23:10;;;;;;;6.40;2.70;;;;;;;;;;5324781;27;20047;-70
2023/07/01 05:25:41;;;;;;;5.47;2.70;;;;;;;;;;5343893;27;20034;-70
2023/07/01 05:28:11;;;;;;;3.33;2.05;;;;;;;;;;5345576;27;20149;-70
2023/07/01 05:30:41;;;;;;;4.45;2.42;;;;;;;;;;5345603;27;20018;-70
2023/07/01 05:33:12;;;;;;;2.78;1.83;;;;;;;;;;5345854;27;20023;-70
2023/07/01 05:35:42;;;;;;;5.80;2.30;;;;;;;;;;5345374;27;20021;-70
2023/07/01 05:38:13;;;;;;;2.83;2.25;;;;;;;;;;5345788;27;20062;-70
2023/07/01 05:40:43;;;;;;;2.80;2.00;;;;;;;;;;5345450;27;20053;-69
2023/07/01 05:43:14;;;;;;;5.00;1.95;;;;;;;;;;5346318;27;20378;-69
2023/07/01 05:45:44;;;;;;;5.53;2.08;;;;;;;;;;5304690;27;20631;-69
2023/07/01 05:48:14;;;;;;;2.55;1.80;;;;;;;;;;5302704;28;20023;-69
2023/07/01 05:50:45;;;;;;;2.78;1.60;;;;;;;;;;5293516;28;20716;-70
2023/07/01 05:53:15;;;;;;;2.08;1.60;;;;;;;;;;5286173;28;20102;-70
2023/07/01 05:55:46;;;;;;;2.53;1.90;;;;;;;;;;5294096;28;20079;-70
2023/07/01 05:58:16;;;;;;;3.60;1.60;;;;;;;;;;5286686;28;20491;-70
2023/07/01 06:00:46;;;;;;;3.25;1.65;;;;;;;;;;5289466;28;20044;-70
2023/07/01 06:03:17;;;;;;;2.42;1.67;;;;;;;;;;5291326;28;20028;-70
2023/07/01 06:05:47;;;;;;;4.00;2.05;;;;;;;;;;5281079;28;20031;-70
2023/07/01 06:08:17;;;;;;;1.95;1.63;;;;;;;;;;5280026;27;20089;-70
2023/07/01 06:10:48;;;;;;;5.72;1.80;;;;;;;;;;5297583;28;20027;-71
2023/07/01 06:13:18;;;;;;;4.05;2.00;;;;;;;;;;5291266;28;20019;-70
2023/07/01 06:15:48;;;;;;;6.70;1.80;;;;;;;;;;5280968;28;20554;-69
2023/07/01 06:18:19;;;;;;;2.95;1.83;;;;;;;;;;5291977;27;20118;-70
2023/07/01 06:20:49;;;;;;;2.20;1.92;;;;;;;;;;5282588;28;20020;-69
2023/07/01 06:23:19;;;;;;;5.43;2.20;;;;;;;;;;5280801;28;20020;-70
2023/07/01 06:25:49;;;;;;;1.92;1.73;;;;;;;;;;5291589;28;20626;-70
2023/07/01 06:28:20;;;;;;;2.38;2.17;;;;;;;;;;5286808;28;20127;-70
2023/07/01 06:30:50;;;;;;;1.85;1.42;;;;;;;;;;5286962;28;20167;-70
2023/07/01 06:33:21;;;;;;;2.53;2.10;;;;;;;;;;5285153;28;20016;-70
2023/07/01 06:35:51;;;;;;;2.58;2.33;;;;;;;;;;5265603;28;20051;-70
2023/07/01 06:38:21;;;;;;;2.90;2.10;;;;;;;;;;5282603;28;20028;-69
2023/07/01 06:40:51;;;;;;;2.78;1.58;;;;;;;;;;5286940;28;20090;-70
2023/07/01 06:43:22;;;;;;;4.97;1.90;;;;;;;;;;5273357;28;20685;-70
2023/07/01 06:47:23;;;;;;;2.42;1.83;;;;;;;17.52;100.00;100515.47;5279616;27;20331;-73
2023/07/01 06:49:55;;;;;;;4.13;2.10;;;;;;;17.51;100.00;100516.50;5241174;28;20114;-71
2023/07/01 06:52:25;;;;;;;4.68;2.22;;;;;;;17.51;100.00;100516.50;5240033;28;20025;-71
2023/07/01 06:54:56;;;;;;;4.68;2.13;;;;;;;17.50;100.00;100504.00;5233413;28;20025;-71
2023/07/01 06:57:30;;;;;;;2.75;2.20;;;;;;;17.57;100.00;100507.50;5232315;28;20482;-71
2023/07/01 07:00:01;;;;;;;2.42;2.00;;;;;;;17.55;100.00;100506.06;5238828;28;20037;-71
2023/07/01 07:02:31;;;;;;;7.82;1.80;;;;;;;17.62;100.00;100504.13;5234911;28;20501;-73
2023/07/01 07:05:03;;;;;;;3.50;2.17;;;;;;;17.55;100.00;100508.78;5230857;28;20032;-73
2023/07/01 07:07:34;;;;;;;3.45;1.83;;;;;;;17.57;100.00;100509.38;5231889;28;20025;-72
2023/07/01 07:10:05;;;;;;;1.83;1.38;;;;;;;17.56;100.00;100511.25;5218010;28;20025;-72
2023/07/01 07:12:36;;;;;;;2.67;1.50;;;;;;;17.65;100.00;100500.97;5231108;28;20661;-72
2023/07/01 07:15:07;;;;;;;1.90;1.70;;;;;;;17.69;100.00;100499.47;5230119;28;20086;-72
2023/07/01 07:17:38;;;;;;;1.55;1.25;;;;;;;17.52;100.00;100498.34;5224925;28;20028;-72
2023/07/01 07:20:09;;;;;;;2.00;1.60;;;;;;;17.60;100.00;100495.38;5228621;28;20029;-72
2023/07/01 07:22:40;;;;;;;3.28;1.80;;;;;;;17.59;100.00;100494.56;5238091;28;20104;-73
2023/07/01 07:25:30;;;;;;;2.25;1.58;;;;;;;17.71;100.00;100488.41;5236697;28;20122;-72
2023/07/01 07:28:02;;;;;;;3.72;1.70;;;;;;;17.65;100.00;100495.53;5238014;28;20035;-72
2023/07/01 07:30:32;;;;;;;1.80;1.50;;;;;;;17.53;100.00;100489.19;5236981;28;20021;-72
2023/07/01 07:33:04;;;;;;;2.17;1.20;;;;;;;17.65;100.00;100492.00;5233532;28;20025;-72
2023/07/01 07:35:34;;;;;;;1.42;1.33;;;;;;;17.68;100.00;100495.13;5237396;28;20012;-72
2023/07/01 07:38:05;;;;;;;1.23;1.13;;;;;;;17.71;100.00;100489.22;5237320;28;20043;-72
2023/07/01 07:40:36;;;;;;;1.17;1.08;;;;;;;17.72;100.00;100488.19;5237878;28;20028;-72
2023/07/01 07:43:10;;;;;;;1.20;1.10;;;;;;;17.71;100.00;100488.41;5237882;28;20593;-72
2023/07/01 07:45:40;;;;;;;2.65;1.30;;;;;;;17.72;100.00;100493.63;5237160;28;20032;-73
2023/07/01 07:48:11;;;;;;;1.10;1.00;;;;;;;17.76;100.00;100491.31;5237642;28;20074;-72
2023/07/01 07:50:41;;;;;;;2.28;1.13;;;;;;;17.80;100.00;100500.66;5237348;28;20086;-73
2023/07/01 07:53:13;;;;;;;1.52;1.25;;;;;;;17.92;100.00;100492.63;5237803;28;20021;-72
2023/07/01 07:55:44;;;;;;;1.67;0.90;;;;;;;17.89;100.00;100493.91;5222771;28;20029;-73
2023/07/01 07:58:15;;;;;;;1.55;1.00;;;;;;;17.85;100.00;100498.94;5224871;28;20017;-72
2023/07/01 08:00:46;;;;;;;5.32;1.35;;;;;;;17.97;100.00;100498.22;5223687;28;20108;-72
2023/07/01 08:03:17;;;;;;;1.70;1.10;;;;;;;17.97;100.00;100490.94;5215632;28;20083;-72
2023/07/01 08:05:49;;;;;;;4.30;1.30;;;;;;;17.99;100.00;100499.66;5217314;28;20017;-72
2023/07/01 08:08:20;;;;;;;2.53;1.40;;;;;;;17.94;100.00;100488.66;5223337;28;20500;-72
2023/07/01 08:10:52;;;;;;;1.50;1.40;;;;;;;17.89;100.00;100487.66;5219623;28;20168;-72
2023/07/01 08:13:23;;;;;;;4.43;2.10;;;;;;;17.94;100.00;100495.97;5214486;28;20021;-72
2023/07/01 08:15:53;;;;;;;2.72;1.77;;;;;;;18.06;100.00;100478.69;5221906;28;20021;-72
2023/07/01 08:18:24;;;;;;;2.92;1.70;;;;;;;18.08;100.00;100486.66;5215019;28;20029;-72
2023/07/01 08:20:55;;;;;;;2.97;1.90;;;;;;;18.11;100.00;100478.03;5209956;28;20031;-72
2023/07/01 08:23:28;;;;;;;1.92;1.67;;;;;;;18.19;100.00;100485.06;5223034;28;20033;-72
2023/07/01 08:25:59;;;;;;;1.67;1.58;;;;;;;18.14;100.00;100474.88;5201331;28;20786;-72
2023/07/01 08:28:31;;;;;;;3.03;2.17;;;;;;;18.29;100.00;100482.66;5218917;28;20093;-73
2023/07/01 08:31:04;;;;;;;4.47;1.83;;;;;;;18.16;100.00;100483.63;5221236;28;20090;-73
2023/07/01 08:33:36;;;;;;;3.72;2.30;;;;;;;18.18;100.00;100481.53;5222339;28;20057;-73
2023/07/01 08:36:07;;;;;;;2.90;2.22;;;;;;;18.25;100.00;100479.56;5210953;28;20105;-73
2023/07/01 08:38:37;;;;;;;4.68;2.20;;;;;;;18.19;100.00;100479.63;5205904;28;20107;-73
2023/07/01 08:41:14;;;;;;;3.40;2.83;;;;;;;18.26;100.00;100486.63;5209196;28;20382;-72
2023/07/01 08:43:47;;;;;;;2.90;2.55;;;;;;;18.27;100.00;100476.59;5208138;28;20098;-73
2023/07/01 08:46:19;;;;;;;3.30;2.58;;;;;;;18.44;100.00;100482.28;5201322;28;20117;-73
2023/07/01 08:48:50;;;;;;;4.78;2.53;;;;;;;18.46;100.00;100474.72;5218163;28;20047;-73
2023/07/01 08:51:26;;;;;;;4.47;2.60;;;;;;;18.72;100.00;100482.56;5216591;28;20028;-73
2023/07/01 08:53:59;;;;;;;2.90;2.10;;;;;;;18.66;100.00;100477.19;5214947;28;20490;-73
2023/07/01 08:56:30;;;;;;;2.90;2.30;;;;;;;18.72;100.00;100484.47;5207648;28;20026;-72
2023/07/01 08:59:01;;;;;;;2.70;2.50;;;;;;;18.77;100.00;100473.75;5209493;28;20053;-73
2023/07/01 09:01:32;;;;;;;2.50;2.30;;;;;;;18.83;100.00;100475.56;5215901;28;20022;-73
2023/07/01 09:04:03;;;;;;;5.07;2.78;;;;;;;18.91;100.00;100475.22;5210502;28;20548;-73
2023/07/01 09:06:33;;;;;;;4.32;2.40;;;;;;;18.91;100.00;100477.13;5204094;28;20068;-72
2023/07/01 09:09:04;;;;;;;5.68;3.00;;;;;;;18.88;100.00;100479.25;5207157;28;20025;-73
2023/07/01 09:11:35;;;;;;;3.17;2.67;;;;;;;18.86;100.00;100475.09;5210863;28;20554;-73
2023/07/01 09:14:06;;;;;;;4.93;3.10;;;;;;;18.79;100.00;100469.75;5207737;28;20029;-73
2023/07/01 09:16:37;;;;;;;6.05;2.90;;;;;;;18.84;100.00;100469.88;5203116;28;20018;-73
2023/07/01 09:19:10;;;;;;;5.28;3.13;;;;;;;18.97;100.00;100474.28;5202934;28;20029;-73
2023/07/01 09:21:41;;;;;;;4.35;3.03;;;;;;;19.03;100.00;100473.41;5201869;28;20042;-72
2023/07/01 09:24:12;;;;;;;4.65;2.78;;;;;;;19.15;100.00;100468.00;5221317;28;20394;-73
2023/07/01 09:26:42;;;;;;;3.97;3.00;;;;;;;19.07;100.00;100473.75;5207813;28;20029;-73
2023/07/01 09:31:59;;;;;;;4.47;2.63;;;;;;;19.31;100.00;100470.03;5218110;28;20021;-73
2023/07/01 09:34:50;;;;;;;3.47;2.55;;;;;;;19.27;100.00;100466.13;5210839;28;20027;-73
2023/07/01 09:37:22;;;;;;;5.68;3.08;;;;;;;19.35;100.00;100465.78;5201932;28;20084;-72
2023/07/01 09:39:53;;;;;;;6.20;3.35;;;;;;;19.29;100.00;100465.91;5210809;28;20669;-73
2023/07/01 09:42:23;;;;;;;4.15;2.80;;;;;;;19.28;100.00;100470.53;5201764;28;20036;-73
2023/07/01 09:45:13;;;;;;;3.25;2.67;;;;;;;19.32;100.00;100468.16;5200478;28;20025;-73
2023/07/01 09:47:43;;;;;;;5.72;3.03;;;;;;;19.30;100.00;100478.44;5212418;28;20039;-73
2023/07/01 09:50:33;;;;;;;6.70;3.40;;;;;;;19.11;100.00;100464.91;5201100;28;20115;-73
2023/07/01 09:53:31;;;;;;;5.25;3.13;;;;;;;19.23;100.00;100475.84;5201412;28;20045;-73
2023/07/01 09:56:04;;;;;;;4.93;3.00;;;;;;;19.39;100.00;100472.44;5200958;28;20025;-73
2023/07/01 09:58:34;;;;;;;7.30;3.63;;;;;;;19.51;100.00;100474.34;5201065;28;20033;-73
2023/07/01 10:01:05;;;;;;;4.57;3.50;;;;;;;19.67;100.00;100470.94;5199818;28;20025;-72
2023/07/01 10:03:36;;;;;;;4.45;3.50;;;;;;;19.68;100.00;100461.75;5201599;28;20187;-73
2023/07/01 10:06:07;;;;;;;6.05;3.67;;;;;;;19.76;100.00;100471.44;5200394;28;20022;-73
2023/07/01 10:08:38;;;;;;;6.00;3.88;;;;;;;19.99;100.00;100465.19;5203876;28;20243;-73
2023/07/01 10:11:29;;;;;;;5.28;3.50;;;;;;;20.04;100.00;100468.03;5215680;28;20028;-73
2023/07/01 10:14:03;;;;;;;5.05;3.72;;;;;;;20.36;100.00;100466.53;5213393;28;20024;-72
2023/07/01 10:16:45;;;;;;;6.72;3.42;;;;;;;20.40;100.00;100456.84;5217510;28;20029;-73
2023/07/01 10:19:31;;;;;;;4.78;3.40;;;;;;;20.53;100.00;100453.03;5220429;28;20021;-72
2023/07/01 10:22:22;;;;;;;;;;;;;;;20.59;100.00;100453.97;5207442;28;20053;-72
2023/07/01 10:24:55;;;;;;;5.60;3.65;;;;;;;20.83;100.00;100454.69;5220509;28;19995;-73
2023/07/01 10:27:44;;;;;;;5.47;3.63;;;;;;;20.91;100.00;100446.13;5220670;28;20029;-72
2023/07/01 10:30:16;;;;;;;5.57;3.60;;;;;;;21.21;100.00;100440.41;5217939;28;20114;-73
2023/07/01 10:32:46;;;;;;;4.05;2.80;;;;;;;21.16;100.00;100432.97;5220824;28;20028;-73
2023/07/01 10:35:17;;;;;;;4.82;2.72;;;;;;;21.59;100.00;100438.91;5219241;28;20478;-72
2023/07/01 10:38:19;;;;;;;6.30;2.80;;;;;;;22.06;100.00;100430.31;5214731;28;20037;-74
2023/07/01 10:40:49;;;;;;;4.22;2.40;;;;;;;22.66;100.00;100429.44;5220836;28;20126;-73
2023/07/01 10:43:20;;;;;;;3.63;2.40;;;;;;;22.92;100.00;100422.38;5221718;28;20266;-72
2023/07/01 10:46:11;;;;;;;8.15;2.30;;;;;;;23.18;100.00;100420.69;5220610;28;20099;-73
2023/07/01 10:48:43;;;;;;;5.57;1.90;;;;;;;23.00;100.00;100420.00;5220848;28;20049;-73
2023/07/01 10:51:14;;;;;;;4.25;2.05;;;;;;;22.77;100.00;100416.72;5217077;28;20033;-73
2023/07/01 10:53:59;;;;;;;2.50;2.10;;;;;;;22.44;100.00;100432.19;5219634;28;20017;-73
2023/07/01 10:56:32;;;;;;;5.85;2.47;;;;;;;21.93;100.00;100437.75;5219460;28;20061;-73
2023/07/01 10:59:22;;;;;;;4.53;1.90;;;;;;;21.62;100.00;100436.47;5210994;28;20425;-73
2023/07/01 11:05:03;;;;;;;3.17;1.90;;;;;;;22.18;100.00;100440.06;5212913;28;20382;-73
2023/07/01 11:07:36;;;;;;;5.25;1.80;;;;;;;22.35;100.00;100437.28;5213178;28;20025;-73
2023/07/01 11:10:07;;;;;;;3.72;1.98;;;;;;;22.22;100.00;100435.75;5218147;28;20033;-73
2023/07/01 11:12:39;;;;;;;4.82;1.83;;;;;;;22.10;100.00;100439.66;5217498;28;20552;-73
2023/07/01 11:15:16;;;;;;;2.20;1.40;;;;;;;21.93;100.00;100434.22;5216844;28;20136;-73
2023/07/01 11:18:05;;;;;;;4.03;1.55;;;;;;;22.17;100.00;100434.84;5208309;28;20024;-73
2023/07/01 11:20:48;;;;;;;4.45;1.80;;;;;;;22.28;100.00;100430.34;5215543;28;20463;-73
2023/07/01 11:23:18;;;;;;;4.70;2.17;;;;;;;22.68;100.00;100430.00;5217318;28;20024;-73
2023/07/01 11:25:49;;;;;;;9.48;2.40;;;;;;;22.89;100.00;100429.19;5219455;28;20406;-73
2023/07/01 11:28:38;;;;;;;4.45;2.20;;;;;;;23.52;100.00;100433.03;5214523;28;20605;-73
2023/07/01 11:31:45;;;;;;;4.80;1.70;;;;;;;23.92;100.00;100426.22;5219866;28;20029;-73
2023/07/01 11:34:17;;;;;;;6.15;1.90;;;;;;;23.93;100.00;100427.03;5223982;28;20033;-73
2023/07/01 11:36:48;;;;;;;3.88;1.55;;;;;;;23.71;100.00;100429.94;5222943;28;20025;-73
2023/07/01 11:39:19;;;;;;;2.55;1.77;;;;;;;23.51;100.00;100427.84;5223114;28;20028;-73
2023/07/01 11:41:51;;;;;;;3.72;1.70;;;;;;;23.52;100.00;100438.50;5223579;28;20043;-74
2023/07/01 11:44:24;;;;;;;4.50;1.90;;;;;;;23.53;100.00;100434.69;5223484;28;20025;-73
2023/07/01 11:46:56;;;;;;;5.90;2.20;;;;;;;23.48;100.00;100428.34;5222743;28;20389;-73
2023/07/01 11:49:29;;;;;;;3.78;1.98;;;;;;;23.68;100.00;100441.41;5227394;28;20055;-73
2023/07/01 11:52:02;;;;;;;4.80;2.25;;;;;;;23.68;100.00;100436.75;5223312;28;20043;-73
2023/07/01 11:54:54;;;;;;;7.75;3.05;;;;;;;23.25;100.00;100444.03;5223649;28;20427;-73
2023/07/01 11:57:32;;;;;;;5.68;2.20;;;;;;;23.31;100.00;100444.91;5218973;28;20029;-73
2023/07/01 12:00:04;;;;;;;4.75;2.38;;;;;;;23.27;100.00;100441.84;5215928;28;20021;-73
2023/07/01 12:02:35;;;;;;;7.82;2.20;;;;;;;22.92;100.00;100438.78;5225713;28;20028;-73
2023/07/01 12:05:06;;;;;;;3.42;1.92;;;;;;;22.84;100.00;100441.94;5223910;28;20107;-73
2023/07/01 12:07:54;;;;;;;6.00;2.13;;;;;;;22.79;100.00;100439.16;5225625;28;20029;-72